sensor_id;sensor_type;location;lat;lon;timestamp;pressure;altitude;pressure_sealevel;temperature;humidity
19096;BME280;9680;52.520;13.332;2023-03-25T00:01:05;100044.19;;;9.32;74.51
19096;BME280;9680;52.520;13.332;2023-03-25T00:03:34;100039.06;;;9.30;74.89
19096;BME280;9680;52.520;13.332;2023-03-25T00:06:05;100046.94;;;9.29;75.24
19096;BME280;9680;52.520;13.332;2023-03-25T00:08:32;100040.88;;;9.28;75.18
19096;BME280;9680;52.520;13.332;2023-03-25T00:11:00;100028.94;;;9.24;75.43
19096;BME280;9680;52.520;13.332;2023-03-25T00:13:29;100034.97;;;9.25;75.61
19096;BME280;9680;52.520;13.332;2023-03-25T00:15:58;100033.41;;;9.21;76.00
19096;BME280;9680;52.520;13.332;2023-03-25T00:18:27;100029.97;;;9.20;75.95
19096;BME280;9680;52.520;13.332;2023-03-25T00:20:58;100035.31;;;9.17;76.28
19096;BME280;9680;52.520;13.332;2023-03-25T00:23:25;100030.25;;;9.14;76.45
19096;BME280;9680;52.520;13.332;2023-03-25T00:25:52;100028.63;;;9.11;76.62
19096;BME280;9680;52.520;13.332;2023-03-25T00:28:25;100020.03;;;9.09;77.26
19096;BME280;9680;52.520;13.332;2023-03-25T00:30:53;100021.09;;;9.05;76.92
19096;BME280;9680;52.520;13.332;2023-03-25T00:33:21;100017.78;;;9.01;77.18
19096;BME280;9680;52.520;13.332;2023-03-25T00:35:50;100025.72;;;8.98;77.67
19096;BME280;9680;52.520;13.332;2023-03-25T00:38:19;100028.38;;;8.97;78.00
19096;BME280;9680;52.520;13.332;2023-03-25T00:40:48;100028.38;;;8.97;77.92
19096;BME280;9680;52.520;13.332;2023-03-25T00:43:17;100026.69;;;8.96;77.88
19096;BME280;9680;52.520;13.332;2023-03-25T00:45:44;100034.53;;;8.94;78.22
19096;BME280;9680;52.520;13.332;2023-03-25T00:48:11;100035.50;;;8.92;78.21
19096;BME280;9680;52.520;13.332;2023-03-25T00:50:39;100038.16;;;8.90;78.39
19096;BME280;9680;52.520;13.332;2023-03-25T00:53:06;100035.63;;;8.88;78.57
19096;BME280;9680;52.520;13.332;2023-03-25T00:55:36;100041.78;;;8.86;78.57
19096;BME280;9680;52.520;13.332;2023-03-25T00:58:02;100038.38;;;8.85;78.86
19096;BME280;9680;52.520;13.332;2023-03-25T01:00:30;100035.81;;;8.84;78.94
19096;BME280;9680;52.520;13.332;2023-03-25T01:02:57;100043.63;;;8.84;79.05
19096;BME280;9680;52.520;13.332;2023-03-25T01:05:26;100045.44;;;8.82;79.17
19096;BME280;9680;52.520;13.332;2023-03-25T01:07:54;100036.84;;;8.80;79.31
19096;BME280;9680;52.520;13.332;2023-03-25T01:10:22;100041.28;;;8.78;79.24
19096;BME280;9680;52.520;13.332;2023-03-25T01:12:49;100042.19;;;8.77;79.38
19096;BME280;9680;52.520;13.332;2023-03-25T01:15:17;100038.81;;;8.74;79.56
19096;BME280;9680;52.520;13.332;2023-03-25T01:17:45;100042.31;;;8.73;79.86
19096;BME280;9680;52.520;13.332;2023-03-25T01:20:12;100032.69;;;8.76;80.07
19096;BME280;9680;52.520;13.332;2023-03-25T01:22:39;100028.25;;;8.79;79.78
19096;BME280;9680;52.520;13.332;2023-03-25T01:25:08;100029.97;;;8.79;79.93
19096;BME280;9680;52.520;13.332;2023-03-25T01:27:35;100026.59;;;8.77;79.53
19096;BME280;9680;52.520;13.332;2023-03-25T01:30:02;100018.94;;;8.73;79.80
19096;BME280;9680;52.520;13.332;2023-03-25T01:32:29;100014.78;;;8.69;79.90
19096;BME280;9680;52.520;13.332;2023-03-25T01:34:56;100011.41;;;8.67;80.07
19096;BME280;9680;52.520;13.332;2023-03-25T01:37:23;100014.09;;;8.66;80.23
19096;BME280;9680;52.520;13.332;2023-03-25T01:39:51;100009.81;;;8.65;80.24
19096;BME280;9680;52.520;13.332;2023-03-25T01:42:20;100010.75;;;8.62;80.30
19096;BME280;9680;52.520;13.332;2023-03-25T01:45:13;100000.41;;;8.60;80.39
19096;BME280;9680;52.520;13.332;2023-03-25T01:47:42;99998.69;;;8.61;80.63
19096;BME280;9680;52.520;13.332;2023-03-25T01:50:09;99999.59;;;8.60;80.76
19096;BME280;9680;52.520;13.332;2023-03-25T01:52:41;100000.38;;;8.62;80.58
19096;BME280;9680;52.520;13.332;2023-03-25T01:55:10;99993.44;;;8.63;80.72
19096;BME280;9680;52.520;13.332;2023-03-25T01:57:40;99999.47;;;8.63;80.72
19096;BME280;9680;52.520;13.332;2023-03-25T02:00:12;100001.16;;;8.64;80.69
19096;BME280;9680;52.520;13.332;2023-03-25T02:02:40;99998.50;;;8.66;80.63
19096;BME280;9680;52.520;13.332;2023-03-25T02:05:17;99992.41;;;8.67;80.78
19096;BME280;9680;52.520;13.332;2023-03-25T02:07:48;99988.56;;;8.76;81.02
19096;BME280;9680;52.520;13.332;2023-03-25T02:10:15;99981.22;;;8.85;81.01
19096;BME280;9680;52.520;13.332;2023-03-25T02:12:45;99978.09;;;8.98;80.50
19096;BME280;9680;52.520;13.332;2023-03-25T02:15:14;99972.50;;;9.07;80.21
19096;BME280;9680;52.520;13.332;2023-03-25T02:17:52;99979.09;;;9.14;79.89
19096;BME280;9680;52.520;13.332;2023-03-25T02:20:39;99972.84;;;9.18;79.40
19096;BME280;9680;52.520;13.332;2023-03-25T02:23:29;99965.97;;;9.17;79.24
19096;BME280;9680;52.520;13.332;2023-03-25T02:26:29;99959.03;;;9.18;79.22
19096;BME280;9680;52.520;13.332;2023-03-25T02:29:07;99965.16;;;9.17;79.10
19096;BME280;9680;52.520;13.332;2023-03-25T02:32:00;99963.25;;;9.21;79.32
19096;BME280;9680;52.520;13.332;2023-03-25T02:34:47;99956.03;;;9.27;79.11
19096;BME280;9680;52.520;13.332;2023-03-25T02:40:37;99947.75;;;9.38;78.63
19096;BME280;9680;52.520;13.332;2023-03-25T02:43:11;99952.19;;;9.36;78.60
19096;BME280;9680;52.520;13.332;2023-03-25T02:45:44;99937.50;;;9.35;78.61
19096;BME280;9680;52.520;13.332;2023-03-25T02:48:18;99931.53;;;9.33;78.49
19096;BME280;9680;52.520;13.332;2023-03-25T02:50:50;99936.97;;;9.27;78.43
19096;BME280;9680;52.520;13.332;2023-03-25T02:53:23;99936.34;;;9.22;78.77
19096;BME280;9680;52.520;13.332;2023-03-25T02:55:56;99931.28;;;9.18;79.00
19096;BME280;9680;52.520;13.332;2023-03-25T02:58:26;99935.50;;;9.21;79.42
19096;BME280;9680;52.520;13.332;2023-03-25T03:00:55;99929.97;;;9.29;79.52
19096;BME280;9680;52.520;13.332;2023-03-25T03:03:24;99926.88;;;9.40;79.07
19096;BME280;9680;52.520;13.332;2023-03-25T03:05:55;99930.81;;;9.49;78.59
19096;BME280;9680;52.520;13.332;2023-03-25T03:08:38;99931.44;;;9.54;78.49
19096;BME280;9680;52.520;13.332;2023-03-25T03:11:14;99929.25;;;9.64;78.22
19096;BME280;9680;52.520;13.332;2023-03-25T03:14:08;99938.38;;;9.72;78.00
19096;BME280;9680;52.520;13.332;2023-03-25T03:16:46;99928.59;;;9.77;77.74
19096;BME280;9680;52.520;13.332;2023-03-25T03:19:23;99923.19;;;9.82;77.36
19096;BME280;9680;52.520;13.332;2023-03-25T03:21:56;99943.91;;;9.84;77.31
19096;BME280;9680;52.520;13.332;2023-03-25T03:24:29;99939.56;;;9.84;77.83
19096;BME280;9680;52.520;13.332;2023-03-25T03:27:05;99944.97;;;9.80;78.15
19096;BME280;9680;52.520;13.332;2023-03-25T03:29:38;99950.47;;;9.73;78.26
19096;BME280;9680;52.520;13.332;2023-03-25T03:32:10;99949.78;;;9.70;78.96
19096;BME280;9680;52.520;13.332;2023-03-25T03:34:44;99945.63;;;9.66;79.40
19096;BME280;9680;52.520;13.332;2023-03-25T03:37:14;99944.78;;;9.65;79.54
19096;BME280;9680;52.520;13.332;2023-03-25T03:39:46;99944.00;;;9.63;79.99
19096;BME280;9680;52.520;13.332;2023-03-25T03:42:18;99954.50;;;9.61;80.24
19096;BME280;9680;52.520;13.332;2023-03-25T03:44:48;99954.34;;;9.65;80.56
19096;BME280;9680;52.520;13.332;2023-03-25T03:47:20;99956.03;;;9.66;80.77
19096;BME280;9680;52.520;13.332;2023-03-25T03:49:52;99954.34;;;9.65;81.11
19096;BME280;9680;52.520;13.332;2023-03-25T03:52:23;99952.78;;;9.60;81.20
19096;BME280;9680;52.520;13.332;2023-03-25T03:54:53;99945.84;;;9.61;81.53
19096;BME280;9680;52.520;13.332;2023-03-25T03:57:26;99938.09;;;9.59;81.92
19096;BME280;9680;52.520;13.332;2023-03-25T04:00:00;99937.31;;;9.57;82.22
19096;BME280;9680;52.520;13.332;2023-03-25T04:02:39;99936.41;;;9.58;82.50
19096;BME280;9680;52.520;13.332;2023-03-25T04:05:09;99933.81;;;9.58;83.04
19096;BME280;9680;52.520;13.332;2023-03-25T04:07:39;99926.78;;;9.60;83.21
19096;BME280;9680;52.520;13.332;2023-03-25T04:10:10;99935.50;;;9.59;83.22
19096;BME280;9680;52.520;13.332;2023-03-25T04:12:43;99939.09;;;9.57;83.54
19096;BME280;9680;52.520;13.332;2023-03-25T04:15:12;99931.19;;;9.58;83.92
19096;BME280;9680;52.520;13.332;2023-03-25T04:17:40;99937.25;;;9.59;83.83
19096;BME280;9680;52.520;13.332;2023-03-25T04:20:09;99935.44;;;9.61;83.78
19096;BME280;9680;52.520;13.332;2023-03-25T04:22:39;99936.16;;;9.65;83.85
19096;BME280;9680;52.520;13.332;2023-03-25T04:25:11;99953.19;;;9.70;83.82
19096;BME280;9680;52.520;13.332;2023-03-25T04:27:38;99942.66;;;9.73;83.75
19096;BME280;9680;52.520;13.332;2023-03-25T04:30:07;99940.97;;;9.72;83.76
19096;BME280;9680;52.520;13.332;2023-03-25T04:32:34;99944.56;;;9.70;83.70
19096;BME280;9680;52.520;13.332;2023-03-25T04:35:01;99940.34;;;9.67;83.31
19096;BME280;9680;52.520;13.332;2023-03-25T04:37:28;99943.44;;;9.56;83.02
19096;BME280;9680;52.520;13.332;2023-03-25T04:39:58;99932.16;;;9.38;82.80
19096;BME280;9680;52.520;13.332;2023-03-25T04:42:25;99936.28;;;9.23;83.33
19096;BME280;9680;52.520;13.332;2023-03-25T04:45:02;99948.84;;;9.13;83.90
19096;BME280;9680;52.520;13.332;2023-03-25T04:47:30;99946.66;;;9.04;84.13
19096;BME280;9680;52.520;13.332;2023-03-25T04:49:57;99937.38;;;8.98;84.46
19096;BME280;9680;52.520;13.332;2023-03-25T04:52:24;99936.72;;;8.93;84.97
19096;BME280;9680;52.520;13.332;2023-03-25T04:54:51;99937.00;;;8.87;85.30
19096;BME280;9680;52.520;13.332;2023-03-25T04:57:18;99939.53;;;8.88;85.80
19096;BME280;9680;52.520;13.332;2023-03-25T04:59:45;99935.13;;;8.91;85.77
19096;BME280;9680;52.520;13.332;2023-03-25T05:02:12;99934.97;;;8.94;85.43
19096;BME280;9680;52.520;13.332;2023-03-25T05:04:40;99935.69;;;8.97;85.30
19096;BME280;9680;52.520;13.332;2023-03-25T05:07:11;99938.22;;;8.99;85.36
19096;BME280;9680;52.520;13.332;2023-03-25T05:09:38;99936.25;;;9.04;85.38
19096;BME280;9680;52.520;13.332;2023-03-25T05:12:05;99938.81;;;9.06;84.86
19096;BME280;9680;52.520;13.332;2023-03-25T05:14:35;99932.75;;;9.05;84.86
19096;BME280;9680;52.520;13.332;2023-03-25T05:17:03;99933.78;;;9.01;84.76
19096;BME280;9680;52.520;13.332;2023-03-25T05:19:30;99933.03;;;8.99;84.66
19096;BME280;9680;52.520;13.332;2023-03-25T05:22:09;99930.63;;;8.94;84.65
19096;BME280;9680;52.520;13.332;2023-03-25T05:24:38;99931.53;;;8.93;84.56
19096;BME280;9680;52.520;13.332;2023-03-25T05:27:09;99937.53;;;8.95;84.58
19096;BME280;9680;52.520;13.332;2023-03-25T05:29:36;99934.72;;;9.00;84.70
19096;BME280;9680;52.520;13.332;2023-03-25T05:32:03;99928.97;;;9.12;84.73
19096;BME280;9680;52.520;13.332;2023-03-25T05:34:30;99937.19;;;9.22;84.72
19096;BME280;9680;52.520;13.332;2023-03-25T05:36:57;99931.28;;;9.38;84.11
19096;BME280;9680;52.520;13.332;2023-03-25T05:39:27;99924.69;;;9.50;83.75
19096;BME280;9680;52.520;13.332;2023-03-25T05:41:54;99929.25;;;9.64;83.30
19096;BME280;9680;52.520;13.332;2023-03-25T05:44:27;99939.06;;;9.76;82.77
19096;BME280;9680;52.520;13.332;2023-03-25T05:46:54;99943.91;;;9.84;82.22
19096;BME280;9680;52.520;13.332;2023-03-25T05:49:21;99938.25;;;9.93;81.55
19096;BME280;9680;52.520;13.332;2023-03-25T05:51:47;99950.13;;;9.99;80.89
19096;BME280;9680;52.520;13.332;2023-03-25T05:54:18;99942.28;;;10.00;80.49
19096;BME280;9680;52.520;13.332;2023-03-25T05:56:47;99944.72;;;10.03;80.21
19096;BME280;9680;52.520;13.332;2023-03-25T05:59:13;99957.75;;;10.03;79.96
19096;BME280;9680;52.520;13.332;2023-03-25T06:01:41;99955.81;;;10.07;79.89
19096;BME280;9680;52.520;13.332;2023-03-25T06:04:10;99949.53;;;10.11;79.14
19096;BME280;9680;52.520;13.332;2023-03-25T06:06:38;99951.78;;;10.19;78.99
19096;BME280;9680;52.520;13.332;2023-03-25T06:09:06;99953.94;;;10.28;78.46
19096;BME280;9680;52.520;13.332;2023-03-25T06:11:33;99956.22;;;10.34;77.20
19096;BME280;9680;52.520;13.332;2023-03-25T06:14:04;99954.63;;;10.32;77.13
19096;BME280;9680;52.520;13.332;2023-03-25T06:16:31;99960.81;;;10.29;76.99
19096;BME280;9680;52.520;13.332;2023-03-25T06:19:00;99955.75;;;10.26;76.97
19096;BME280;9680;52.520;13.332;2023-03-25T06:21:31;99970.16;;;10.33;76.84
19096;BME280;9680;52.520;13.332;2023-03-25T06:23:59;99963.41;;;10.29;76.51
19096;BME280;9680;52.520;13.332;2023-03-25T06:26:26;99973.53;;;10.18;76.34
19096;BME280;9680;52.520;13.332;2023-03-25T06:28:53;99977.53;;;10.06;76.60
19096;BME280;9680;52.520;13.332;2023-03-25T06:31:23;99977.16;;;9.96;76.70
19096;BME280;9680;52.520;13.332;2023-03-25T06:33:51;99975.53;;;9.94;76.96
19096;BME280;9680;52.520;13.332;2023-03-25T06:36:19;99977.16;;;9.96;77.14
19096;BME280;9680;52.520;13.332;2023-03-25T06:39:01;99980.09;;;10.08;77.17
19096;BME280;9680;52.520;13.332;2023-03-25T06:41:30;99981.63;;;10.12;76.96
19096;BME280;9680;52.520;13.332;2023-03-25T06:44:13;99973.53;;;10.18;76.77
19096;BME280;9680;52.520;13.332;2023-03-25T06:46:47;99964.50;;;10.25;76.53
19096;BME280;9680;52.520;13.332;2023-03-25T06:49:26;99971.69;;;10.38;76.38
19096;BME280;9680;52.520;13.332;2023-03-25T06:51:55;99965.28;;;10.45;76.05
19096;BME280;9680;52.520;13.332;2023-03-25T06:54:22;99967.34;;;10.38;75.25
19096;BME280;9680;52.520;13.332;2023-03-25T06:56:49;99965.31;;;10.26;75.17
19096;BME280;9680;52.520;13.332;2023-03-25T06:59:24;99969.28;;;10.15;75.66
19096;BME280;9680;52.520;13.332;2023-03-25T07:01:52;99961.41;;;10.17;75.79
19096;BME280;9680;52.520;13.332;2023-03-25T07:04:19;99958.25;;;10.10;75.92
19096;BME280;9680;52.520;13.332;2023-03-25T07:06:46;99973.19;;;10.07;76.23
19096;BME280;9680;52.520;13.332;2023-03-25T07:09:13;99971.97;;;10.14;76.17
19096;BME280;9680;52.520;13.332;2023-03-25T07:11:41;99971.59;;;10.22;76.45
19096;BME280;9680;52.520;13.332;2023-03-25T07:14:07;99968.72;;;10.28;76.35
19096;BME280;9680;52.520;13.332;2023-03-25T07:16:34;99964.13;;;10.33;76.06
19096;BME280;9680;52.520;13.332;2023-03-25T07:19:02;99978.47;;;10.42;75.82
19096;BME280;9680;52.520;13.332;2023-03-25T07:21:29;99982.13;;;10.55;75.95
19096;BME280;9680;52.520;13.332;2023-03-25T07:23:56;99979.91;;;10.65;75.37
19096;BME280;9680;52.520;13.332;2023-03-25T07:26:23;99973.16;;;10.78;75.02
19096;BME280;9680;52.520;13.332;2023-03-25T07:28:50;99983.81;;;10.91;74.80
19096;BME280;9680;52.520;13.332;2023-03-25T07:31:17;99975.19;;;11.07;73.97
19096;BME280;9680;52.520;13.332;2023-03-25T07:33:44;99986.44;;;11.25;73.39
19096;BME280;9680;52.520;13.332;2023-03-25T07:36:12;99985.53;;;11.42;72.21
19096;BME280;9680;52.520;13.332;2023-03-25T07:38:39;99982.25;;;11.55;71.75
19096;BME280;9680;52.520;13.332;2023-03-25T07:41:07;99980.00;;;11.64;70.65
19096;BME280;9680;52.520;13.332;2023-03-25T07:43:34;99975.63;;;11.81;69.27
19096;BME280;9680;52.520;13.332;2023-03-25T07:46:30;99985.78;;;11.86;68.64
19096;BME280;9680;52.520;13.332;2023-03-25T07:48:57;99984.97;;;11.85;67.19
19096;BME280;9680;52.520;13.332;2023-03-25T07:51:29;99978.22;;;11.81;67.36
19096;BME280;9680;52.520;13.332;2023-03-25T07:53:57;99985.53;;;11.74;66.99
19096;BME280;9680;52.520;13.332;2023-03-25T07:56:24;99985.31;;;11.79;66.51
19096;BME280;9680;52.520;13.332;2023-03-25T07:58:51;99973.75;;;11.99;65.42
19096;BME280;9680;52.520;13.332;2023-03-25T08:01:17;99983.81;;;12.37;65.77
19096;BME280;9680;52.520;13.332;2023-03-25T08:03:44;99982.13;;;12.67;64.78
19096;BME280;9680;52.520;13.332;2023-03-25T08:06:11;99975.53;;;12.76;62.53
19096;BME280;9680;52.520;13.332;2023-03-25T08:08:39;99988.03;;;12.85;62.46
19096;BME280;9680;52.520;13.332;2023-03-25T08:11:06;99977.69;;;12.98;62.04
19096;BME280;9680;52.520;13.332;2023-03-25T08:13:33;99981.50;;;13.07;61.53
19096;BME280;9680;52.520;13.332;2023-03-25T08:16:01;99973.66;;;12.92;59.54
19096;BME280;9680;52.520;13.332;2023-03-25T08:18:28;99976.28;;;12.92;61.57
19096;BME280;9680;52.520;13.332;2023-03-25T08:20:54;99974.03;;;13.01;60.75
19096;BME280;9680;52.520;13.332;2023-03-25T08:23:21;99981.69;;;13.18;60.90
19096;BME280;9680;52.520;13.332;2023-03-25T08:25:53;99982.53;;;13.33;60.05
19096;BME280;9680;52.520;13.332;2023-03-25T08:28:20;99978.78;;;13.37;59.86
19096;BME280;9680;52.520;13.332;2023-03-25T08:30:48;99979.09;;;13.33;58.82
19096;BME280;9680;52.520;13.332;2023-03-25T08:33:20;99975.00;;;13.29;58.20
19096;BME280;9680;52.520;13.332;2023-03-25T08:35:47;99983.78;;;13.42;58.63
19096;BME280;9680;52.520;13.332;2023-03-25T08:38:15;99981.41;;;13.52;56.87
19096;BME280;9680;52.520;13.332;2023-03-25T08:40:42;99986.19;;;13.60;57.35
19096;BME280;9680;52.520;13.332;2023-03-25T08:43:10;99983.53;;;13.74;56.60
19096;BME280;9680;52.520;13.332;2023-03-25T08:45:37;99978.38;;;13.87;55.23
19096;BME280;9680;52.520;13.332;2023-03-25T08:48:05;99982.94;;;13.83;55.63
19096;BME280;9680;52.520;13.332;2023-03-25T08:50:31;99968.25;;;13.95;55.79
19096;BME280;9680;52.520;13.332;2023-03-25T08:52:58;99971.53;;;13.84;54.78
19096;BME280;9680;52.520;13.332;2023-03-25T08:55:28;99973.47;;;13.95;55.83
19096;BME280;9680;52.520;13.332;2023-03-25T08:57:55;99972.06;;;14.17;55.21
19096;BME280;9680;52.520;13.332;2023-03-25T09:00:24;99974.34;;;14.09;54.61
19096;BME280;9680;52.520;13.332;2023-03-25T09:02:52;99965.97;;;14.04;54.60
19096;BME280;9680;52.520;13.332;2023-03-25T09:05:18;99976.81;;;14.25;54.49
19096;BME280;9680;52.520;13.332;2023-03-25T09:07:45;99975.16;;;14.77;54.15
19096;BME280;9680;52.520;13.332;2023-03-25T09:10:12;99967.25;;;15.16;52.69
19096;BME280;9680;52.520;13.332;2023-03-25T09:12:39;99982.22;;;15.53;50.38
19096;BME280;9680;52.520;13.332;2023-03-25T09:15:07;99966.31;;;15.17;49.59
19096;BME280;9680;52.520;13.332;2023-03-25T09:17:36;99966.88;;;15.09;50.67
19096;BME280;9680;52.520;13.332;2023-03-25T09:20:04;99960.69;;;14.97;51.09
19096;BME280;9680;52.520;13.332;2023-03-25T09:22:33;99960.69;;;14.84;50.20
19096;BME280;9680;52.520;13.332;2023-03-25T09:24:59;99968.06;;;14.39;51.39
19096;BME280;9680;52.520;13.332;2023-03-25T09:27:26;99973.94;;;14.02;51.94
19096;BME280;9680;52.520;13.332;2023-03-25T09:29:53;99984.47;;;13.73;53.06
19096;BME280;9680;52.520;13.332;2023-03-25T09:32:20;99985.81;;;13.51;53.27
19096;BME280;9680;52.520;13.332;2023-03-25T09:34:49;99989.63;;;13.31;54.23
19096;BME280;9680;52.520;13.332;2023-03-25T09:37:15;99991.25;;;13.34;54.92
19096;BME280;9680;52.520;13.332;2023-03-25T09:39:42;99989.25;;;13.52;54.88
19096;BME280;9680;52.520;13.332;2023-03-25T09:42:32;99988.25;;;13.40;53.72
19096;BME280;9680;52.520;13.332;2023-03-25T09:45:10;99990.94;;;13.38;53.58
19096;BME280;9680;52.520;13.332;2023-03-25T09:47:50;99986.03;;;13.48;53.80
19096;BME280;9680;52.520;13.332;2023-03-25T09:50:20;99982.84;;;13.85;52.13
19096;BME280;9680;52.520;13.332;2023-03-25T09:52:53;99981.06;;;14.13;52.46
19096;BME280;9680;52.520;13.332;2023-03-25T09:55:24;99976.03;;;14.50;52.16
19096;BME280;9680;52.520;13.332;2023-03-25T09:57:56;99961.06;;;14.65;51.34
19096;BME280;9680;52.520;13.332;2023-03-25T10:00:24;99981.41;;;14.62;51.01
19096;BME280;9680;52.520;13.332;2023-03-25T10:02:59;99979.28;;;14.41;50.53
19096;BME280;9680;52.520;13.332;2023-03-25T10:06:00;99981.53;;;14.20;50.85
19096;BME280;9680;52.520;13.332;2023-03-25T10:08:43;99984.81;;;14.09;50.73
19096;BME280;9680;52.520;13.332;2023-03-25T10:11:18;99976.09;;;13.95;51.09
19096;BME280;9680;52.520;13.332;2023-03-25T10:13:51;99994.69;;;13.91;51.48
19096;BME280;9680;52.520;13.332;2023-03-25T10:16:27;99978.75;;;13.81;50.68
19096;BME280;9680;52.520;13.332;2023-03-25T10:19:07;99981.38;;;13.81;50.99
19096;BME280;9680;52.520;13.332;2023-03-25T10:21:47;99976.13;;;13.81;51.28
19096;BME280;9680;52.520;13.332;2023-03-25T10:24:17;99970.84;;;14.23;50.46
19096;BME280;9680;52.520;13.332;2023-03-25T10:26:47;99969.09;;;14.36;50.34
19096;BME280;9680;52.520;13.332;2023-03-25T10:29:19;99967.78;;;14.69;49.75
19096;BME280;9680;52.520;13.332;2023-03-25T10:31:50;99955.78;;;14.93;49.08
19096;BME280;9680;52.520;13.332;2023-03-25T10:34:19;99959.81;;;15.10;48.43
19096;BME280;9680;52.520;13.332;2023-03-25T10:36:52;99956.75;;;15.29;47.69
19096;BME280;9680;52.520;13.332;2023-03-25T10:39:23;99960.91;;;15.57;46.31
19096;BME280;9680;52.520;13.332;2023-03-25T10:42:09;99963.00;;;15.52;45.62
19096;BME280;9680;52.520;13.332;2023-03-25T10:44:40;99953.28;;;15.41;46.79
19096;BME280;9680;52.520;13.332;2023-03-25T10:47:11;99965.38;;;15.68;46.80
19096;BME280;9680;52.520;13.332;2023-03-25T10:49:41;99953.97;;;15.56;46.44
19096;BME280;9680;52.520;13.332;2023-03-25T10:52:10;99955.00;;;15.54;46.96
19096;BME280;9680;52.520;13.332;2023-03-25T10:54:41;99954.88;;;15.68;46.47
19096;BME280;9680;52.520;13.332;2023-03-25T10:57:13;99955.03;;;15.91;46.97
19096;BME280;9680;52.520;13.332;2023-03-25T10:59:44;99942.94;;;16.13;45.61
19096;BME280;9680;52.520;13.332;2023-03-25T11:02:17;99942.44;;;16.43;45.72
19096;BME280;9680;52.520;13.332;2023-03-25T11:04:46;99946.91;;;16.77;45.14
19096;BME280;9680;52.520;13.332;2023-03-25T11:07:19;99941.00;;;16.51;44.86
19096;BME280;9680;52.520;13.332;2023-03-25T11:09:46;99942.56;;;16.42;44.65
19096;BME280;9680;52.520;13.332;2023-03-25T11:12:17;99936.16;;;16.57;45.04
19096;BME280;9680;52.520;13.332;2023-03-25T11:14:53;99939.66;;;16.92;44.07
19096;BME280;9680;52.520;13.332;2023-03-25T11:17:21;99939.56;;;17.16;44.21
19096;BME280;9680;52.520;13.332;2023-03-25T11:19:54;99935.63;;;16.99;43.53
19096;BME280;9680;52.520;13.332;2023-03-25T11:22:27;99932.56;;;16.58;44.06
19096;BME280;9680;52.520;13.332;2023-03-25T11:24:58;99926.31;;;16.37;44.02
19096;BME280;9680;52.520;13.332;2023-03-25T11:27:28;99933.59;;;16.09;45.08
19096;BME280;9680;52.520;13.332;2023-03-25T11:30:01;99953.53;;;15.63;45.61
19096;BME280;9680;52.520;13.332;2023-03-25T11:32:33;99954.50;;;15.11;46.91
19096;BME280;9680;52.520;13.332;2023-03-25T11:35:01;99957.94;;;14.73;48.96
19096;BME280;9680;52.520;13.332;2023-03-25T11:37:36;99953.69;;;14.32;50.19
19096;BME280;9680;52.520;13.332;2023-03-25T11:40:13;99953.22;;;13.84;50.86
19096;BME280;9680;52.520;13.332;2023-03-25T11:42:43;99947.22;;;13.40;52.42
19096;BME280;9680;52.520;13.332;2023-03-25T11:45:24;99955.00;;;12.99;54.58
19096;BME280;9680;52.520;13.332;2023-03-25T11:47:56;99953.13;;;12.72;56.41
19096;BME280;9680;52.520;13.332;2023-03-25T11:50:25;99944.59;;;12.68;59.18
19096;BME280;9680;52.520;13.332;2023-03-25T11:52:57;99938.25;;;12.87;58.69
19096;BME280;9680;52.520;13.332;2023-03-25T11:55:27;99928.09;;;13.25;59.41
19096;BME280;9680;52.520;13.332;2023-03-25T11:57:58;99931.88;;;13.63;59.36
19096;BME280;9680;52.520;13.332;2023-03-25T12:00:31;99923.25;;;14.16;57.41
19096;BME280;9680;52.520;13.332;2023-03-25T12:03:03;99907.94;;;15.02;55.89
19096;BME280;9680;52.520;13.332;2023-03-25T12:05:31;99908.91;;;15.63;52.90
19096;BME280;9680;52.520;13.332;2023-03-25T12:08:12;99902.91;;;15.98;50.86
19096;BME280;9680;52.520;13.332;2023-03-25T12:10:49;99901.59;;;16.04;49.04
19096;BME280;9680;52.520;13.332;2023-03-25T12:13:29;99882.16;;;16.06;48.12
19096;BME280;9680;52.520;13.332;2023-03-25T12:16:06;99875.31;;;15.79;47.44
19096;BME280;9680;52.520;13.332;2023-03-25T12:18:47;99896.75;;;15.49;47.17
19096;BME280;9680;52.520;13.332;2023-03-25T12:21:26;99894.31;;;15.34;47.99
19096;BME280;9680;52.520;13.332;2023-03-25T12:24:08;99898.94;;;15.31;47.74
19096;BME280;9680;52.520;13.332;2023-03-25T12:26:47;99888.97;;;15.60;47.39
19096;BME280;9680;52.520;13.332;2023-03-25T12:29:29;99882.63;;;16.11;47.04
19096;BME280;9680;52.520;13.332;2023-03-25T12:32:10;99882.69;;;16.34;45.99
19096;BME280;9680;52.520;13.332;2023-03-25T12:34:51;99882.00;;;15.96;44.84
19096;BME280;9680;52.520;13.332;2023-03-25T12:37:29;99871.38;;;15.73;45.40
19096;BME280;9680;52.520;13.332;2023-03-25T12:40:32;99875.25;;;15.43;45.78
19096;BME280;9680;52.520;13.332;2023-03-25T12:43:07;99879.06;;;15.39;46.67
19096;BME280;9680;52.520;13.332;2023-03-25T12:45:49;99884.81;;;15.69;46.31
19096;BME280;9680;52.520;13.332;2023-03-25T12:48:37;99881.50;;;15.91;45.96
19096;BME280;9680;52.520;13.332;2023-03-25T12:51:15;99873.19;;;16.09;45.89
19096;BME280;9680;52.520;13.332;2023-03-25T12:53:52;99875.72;;;16.10;44.13
19096;BME280;9680;52.520;13.332;2023-03-25T12:56:42;99864.31;;;15.74;44.92
19096;BME280;9680;52.520;13.332;2023-03-25T12:59:25;99869.53;;;15.38;45.12
19096;BME280;9680;52.520;13.332;2023-03-25T13:02:04;99873.41;;;15.08;46.49
19096;BME280;9680;52.520;13.332;2023-03-25T13:04:53;99877.63;;;14.72;48.42
19096;BME280;9680;52.520;13.332;2023-03-25T13:07:26;99879.03;;;14.24;50.27
19096;BME280;9680;52.520;13.332;2023-03-25T13:10:02;99901.59;;;13.87;51.54
19096;BME280;9680;52.520;13.332;2023-03-25T13:12:36;99915.38;;;13.48;55.86
19096;BME280;9680;52.520;13.332;2023-03-25T13:15:13;99927.25;;;12.81;57.91
19096;BME280;9680;52.520;13.332;2023-03-25T13:17:45;99921.72;;;12.57;60.24
19096;BME280;9680;52.520;13.332;2023-03-25T13:20:18;99913.81;;;12.73;61.56
19096;BME280;9680;52.520;13.332;2023-03-25T13:22:48;99901.69;;;13.01;61.67
19096;BME280;9680;52.520;13.332;2023-03-25T13:25:20;99895.69;;;12.85;62.59
19096;BME280;9680;52.520;13.332;2023-03-25T13:27:51;99892.63;;;12.63;63.18